Time;durP1;ratioP1;P1;durP2;ratioP2;P2;SDS_P1;SDS_P2;PMS_P1;PMS_P2;Temp;Humidity;BMP_temperature;BMP_pressure;BME280_temperature;BME280_humidity;BME280_pressure;Samples;Min_cycle;Max_cycle;Signal;HPM_P1;HPM_P2
2023/03/04 00:00:26;;;;;;;6.45;4.20;;;6.00;99.90;;;;;;5111727;28;20024;-77
2023/03/04 00:02:52;;;;;;;6.35;3.95;;;6.00;99.90;;;;;;5111054;28;20024;-74
2023/03/04 00:05:17;;;;;;;6.25;4.03;;;6.00;99.90;;;;;;5110526;28;20116;-73
2023/03/04 00:07:43;;;;;;;8.32;4.30;;;6.00;99.90;;;;;;5110011;28;20381;-74
2023/03/04 00:10:10;;;;;;;7.22;4.50;;;6.00;99.90;;;;;;5110294;28;20098;-73
2023/03/04 00:12:36;;;;;;;5.43;3.25;;;6.00;99.90;;;;;;5110636;28;20347;-73
2023/03/04 00:15:02;;;;;;;6.53;3.50;;;6.10;99.90;;;;;;5110397;28;20031;-74
2023/03/04 00:17:30;;;;;;;6.88;3.35;;;6.10;99.90;;;;;;5109204;28;20031;-73
2023/03/04 00:19:56;;;;;;;5.15;2.60;;;6.10;99.90;;;;;;5108426;28;20019;-73
2023/03/04 00:22:22;;;;;;;4.75;2.10;;;6.10;99.90;;;;;;5109471;28;20487;-73
2023/03/04 00:24:49;;;;;;;5.35;2.28;;;6.10;99.90;;;;;;5109758;28;20060;-73
2023/03/04 00:27:15;;;;;;;7.43;2.03;;;6.10;99.90;;;;;;5110023;28;20063;-72
2023/03/04 00:29:59;;;;;;;5.50;2.30;;;6.10;99.90;;;;;;5109852;28;20116;-73
2023/03/04 00:32:25;;;;;;;5.10;2.38;;;6.00;99.90;;;;;;5110296;28;20114;-72
2023/03/04 00:34:51;;;;;;;5.47;2.60;;;6.00;99.90;;;;;;5109337;28;20150;-73
2023/03/04 00:37:16;;;;;;;3.03;2.30;;;6.00;99.90;;;;;;5091471;28;20434;-73
2023/03/04 00:39:42;;;;;;;5.20;2.03;;;6.00;99.90;;;;;;5089404;28;20025;-74
2023/03/04 00:42:08;;;;;;;6.45;3.90;;;6.00;99.90;;;;;;5089728;28;20165;-74
2023/03/04 00:44:33;;;;;;;7.70;4.53;;;6.00;99.90;;;;;;5089701;28;20024;-73
2023/03/04 00:46:59;;;;;;;5.60;3.17;;;6.00;99.90;;;;;;5089854;28;20028;-72
2023/03/04 00:49:25;;;;;;;10.63;3.40;;;6.00;99.90;;;;;;5090299;28;20103;-73
2023/03/04 00:51:51;;;;;;;6.35;4.18;;;6.00;99.90;;;;;;5089305;28;20386;-74
2023/03/04 00:54:16;;;;;;;7.93;4.00;;;6.00;99.90;;;;;;5089812;28;20441;-73
2023/03/04 00:56:42;;;;;;;4.38;2.80;;;6.00;99.90;;;;;;5088927;28;20346;-74
2023/03/04 00:59:08;;;;;;;5.22;2.60;;;6.00;99.90;;;;;;5089892;28;20027;-74
2023/03/04 01:01:52;;;;;;;8.02;3.60;;;6.00;99.90;;;;;;5089732;28;20028;-73
2023/03/04 01:04:18;;;;;;;6.60;3.33;;;6.00;99.90;;;;;;5089480;28;20037;-74
2023/03/04 01:06:43;;;;;;;5.95;2.47;;;6.00;99.90;;;;;;5089292;28;20027;-74
2023/03/04 01:09:09;;;;;;;6.00;2.40;;;5.90;99.90;;;;;;5089893;28;20057;-73
2023/03/04 01:11:35;;;;;;;4.78;3.20;;;5.90;99.90;;;;;;5105592;28;20030;-73
2023/03/04 01:14:00;;;;;;;5.57;2.42;;;5.90;99.90;;;;;;5110587;28;20066;-74
2023/03/04 01:16:26;;;;;;;4.90;2.30;;;6.00;99.90;;;;;;5109452;28;20469;-73
2023/03/04 01:18:52;;;;;;;7.00;2.63;;;5.90;99.90;;;;;;5110289;28;20035;-73
2023/03/04 01:21:18;;;;;;;16.08;4.22;;;6.00;99.90;;;;;;5110172;28;20024;-73
2023/03/04 01:23:43;;;;;;;13.13;3.70;;;5.90;99.90;;;;;;5110039;28;20127;-74
2023/03/04 01:26:09;;;;;;;14.90;4.38;;;6.00;99.90;;;;;;5110244;28;20031;-74
2023/03/04 01:28:35;;;;;;;7.97;2.10;;;6.00;99.90;;;;;;5110140;28;20545;-74
2023/03/04 01:31:02;;;;;;;5.07;1.60;;;6.00;99.90;;;;;;5076433;28;20474;-74
2023/03/04 01:33:28;;;;;;;5.20;1.60;;;6.00;99.90;;;;;;5075598;28;20029;-74
2023/03/04 01:35:53;;;;;;;5.72;1.58;;;6.00;99.90;;;;;;5086902;28;20059;-74
2023/03/04 01:38:19;;;;;;;6.13;1.90;;;6.00;99.90;;;;;;5093579;28;20044;-73
2023/03/04 01:40:45;;;;;;;4.55;1.60;;;6.00;99.90;;;;;;5092966;28;20063;-74
2023/03/04 01:43:26;;;;;;;3.55;1.60;;;6.00;99.90;;;;;;5093641;28;20459;-73
2023/03/04 01:45:54;;;;;;;4.35;1.48;;;6.10;99.90;;;;;;5092859;28;20142;-74
2023/03/04 01:48:25;;;;;;;3.90;1.42;;;6.10;99.90;;;;;;5093482;28;20484;-74
2023/03/04 01:50:51;;;;;;;5.53;1.73;;;6.10;99.90;;;;;;5092915;28;20084;-74
2023/03/04 01:53:21;;;;;;;5.20;2.03;;;6.10;99.90;;;;;;5093006;28;20023;-74
2023/03/04 01:55:48;;;;;;;4.10;1.92;;;6.10;99.90;;;;;;5092722;28;20024;-73
2023/03/04 01:58:14;;;;;;;6.07;1.92;;;6.10;99.90;;;;;;5093300;28;20085;-73
2023/03/04 02:00:40;;;;;;;4.60;1.85;;;6.10;99.90;;;;;;5093345;28;20107;-72
2023/03/04 02:03:13;;;;;;;7.53;2.28;;;6.10;99.90;;;;;;5092445;28;20407;-73
2023/03/04 02:05:43;;;;;;;7.47;2.40;;;6.10;99.90;;;;;;5093071;28;20027;-73
2023/03/04 02:08:10;;;;;;;6.53;2.28;;;6.10;99.90;;;;;;5092842;28;20082;-73
2023/03/04 02:10:37;;;;;;;8.20;2.20;;;6.00;99.90;;;;;;5093271;28;20115;-74
2023/03/04 02:13:03;;;;;;;5.35;2.00;;;6.00;99.90;;;;;;5092386;28;20043;-74
2023/03/04 02:15:29;;;;;;;5.30;2.28;;;5.90;99.90;;;;;;5093103;28;20523;-74
2023/03/04 02:17:55;;;;;;;6.70;2.22;;;5.90;99.90;;;;;;5092523;28;20086;-74
2023/03/04 02:20:56;;;;;;;7.88;1.83;;;6.00;99.90;;;;;;5091965;28;20028;-73
2023/03/04 02:23:47;;;;;;;6.55;1.98;;;5.90;99.90;;;;;;5089148;28;20055;-73
2023/03/04 02:26:17;;;;;;;6.55;1.75;;;5.90;99.90;;;;;;5093266;28;20024;-72
2023/03/04 02:28:44;;;;;;;5.70;2.10;;;5.90;99.90;;;;;;5093112;28;20181;-73
2023/03/04 02:31:36;;;;;;;4.50;1.60;;;5.90;99.90;;;;;;5092881;28;20028;-73
2023/03/04 02:34:17;;;;;;;3.47;2.42;;;5.90;99.90;;;;;;5092168;28;20051;-73
2023/03/04 02:36:44;;;;;;;6.45;1.90;;;5.90;99.90;;;;;;5092384;28;20382;-73
2023/03/04 02:39:40;;;;;;;8.98;2.47;;;5.90;99.90;;;;;;5092727;28;20052;-74
2023/03/04 02:42:07;;;;;;;5.80;2.08;;;5.90;99.90;;;;;;5091436;28;20482;-73
2023/03/04 02:44:35;;;;;;;5.57;2.55;;;5.90;99.90;;;;;;5091535;28;20028;-73
2023/03/04 02:47:03;;;;;;;6.75;2.65;;;5.90;99.90;;;;;;5091546;28;20036;-72
2023/03/04 02:49:31;;;;;;;5.97;2.28;;;5.90;99.90;;;;;;5091897;28;20024;-72
2023/03/04 02:52:18;;;;;;;6.20;2.58;;;5.90;99.90;;;;;;5091696;28;20028;-73
2023/03/04 02:54:44;;;;;;;10.25;2.70;;;5.90;99.90;;;;;;5107514;28;20020;-73
2023/03/04 02:57:12;;;;;;;7.35;2.92;;;5.90;99.90;;;;;;5091348;28;20024;-73
2023/03/04 02:59:39;;;;;;;5.72;3.05;;;5.80;99.90;;;;;;5092022;28;20040;-72
2023/03/04 03:02:06;;;;;;;5.38;2.65;;;5.80;99.90;;;;;;5091228;28;20484;-73
2023/03/04 03:04:32;;;;;;;7.55;2.72;;;5.80;99.90;;;;;;5107537;28;20024;-73
2023/03/04 03:06:58;;;;;;;4.32;2.53;;;5.80;99.90;;;;;;5091547;28;20036;-73
2023/03/04 03:09:24;;;;;;;6.53;2.72;;;5.80;99.90;;;;;;5090771;28;20073;-73
2023/03/04 03:11:49;;;;;;;6.30;2.45;;;5.80;99.90;;;;;;5091406;28;20047;-74
2023/03/04 03:14:16;;;;;;;6.95;2.80;;;5.80;99.90;;;;;;5091929;28;20098;-74
2023/03/04 03:16:42;;;;;;;4.53;2.58;;;5.70;99.90;;;;;;5091630;28;20024;-73
2023/03/04 03:19:07;;;;;;;7.32;2.75;;;5.80;99.90;;;;;;5090007;28;20024;-74
2023/03/04 03:21:33;;;;;;;6.78;2.83;;;5.70;99.90;;;;;;5091773;28;20035;-73
2023/03/04 03:23:59;;;;;;;5.45;2.63;;;5.70;99.90;;;;;;5091393;28;20079;-74
2023/03/04 03:26:25;;;;;;;11.20;3.00;;;5.70;99.90;;;;;;5091803;28;20036;-73
2023/03/04 03:28:50;;;;;;;4.15;2.63;;;5.70;99.90;;;;;;5090847;28;20036;-74
2023/03/04 03:31:16;;;;;;;4.28;2.92;;;5.70;99.90;;;;;;5091935;28;20031;-73
2023/03/04 03:33:42;;;;;;;5.15;2.40;;;5.70;99.90;;;;;;5090180;28;20028;-73
2023/03/04 03:36:08;;;;;;;7.55;3.20;;;5.70;99.90;;;;;;5091122;28;20843;-73
2023/03/04 03:38:34;;;;;;;5.70;2.65;;;5.70;99.90;;;;;;5091503;28;20103;-76
2023/03/04 03:40:59;;;;;;;4.68;2.80;;;5.70;99.90;;;;;;5087502;28;20048;-73
2023/03/04 03:43:25;;;;;;;7.15;2.95;;;5.70;99.90;;;;;;5076090;28;20482;-73
2023/03/04 03:45:51;;;;;;;7.72;2.70;;;5.70;99.90;;;;;;5070804;28;20557;-77
2023/03/04 03:48:17;;;;;;;7.85;3.28;;;5.70;99.90;;;;;;5070636;28;20079;-73
2023/03/04 03:50:43;;;;;;;4.78;2.90;;;5.70;99.90;;;;;;5071116;28;20131;-72
2023/03/04 03:53:08;;;;;;;6.25;3.10;;;5.60;99.90;;;;;;5070601;28;20789;-73
2023/03/04 03:55:34;;;;;;;5.03;2.78;;;5.60;99.90;;;;;;5070914;28;20024;-73
2023/03/04 03:58:00;;;;;;;5.18;2.85;;;5.60;99.90;;;;;;5078032;28;20036;-74
2023/03/04 04:00:26;;;;;;;6.15;2.80;;;5.60;99.90;;;;;;5091440;28;20016;-73
2023/03/04 04:02:54;;;;;;;7.25;2.70;;;5.60;99.90;;;;;;5090894;28;20024;-77
2023/03/04 04:05:19;;;;;;;6.07;3.00;;;5.60;99.90;;;;;;5091153;28;20458;-73
2023/03/04 04:07:45;;;;;;;4.90;2.60;;;5.60;99.90;;;;;;5089531;28;20089;-73
2023/03/04 04:10:11;;;;;;;4.15;3.00;;;5.60;99.90;;;;;;5090415;28;20200;-73
2023/03/04 04:12:37;;;;;;;6.43;2.70;;;5.60;99.90;;;;;;5091267;28;20032;-73
2023/03/04 04:15:03;;;;;;;5.60;2.70;;;5.50;99.90;;;;;;5090233;28;20327;-73
2023/03/04 04:17:29;;;;;;;4.57;2.60;;;5.50;99.90;;;;;;5090700;28;20076;-73
2023/03/04 04:19:55;;;;;;;5.00;2.80;;;5.50;99.90;;;;;;5090196;28;20107;-74
2023/03/04 04:22:20;;;;;;;4.40;2.85;;;5.50;99.90;;;;;;5090979;28;20030;-73
2023/03/04 04:24:47;;;;;;;6.07;3.53;;;5.50;99.90;;;;;;5091113;28;20028;-73
2023/03/04 04:27:13;;;;;;;5.40;2.90;;;5.50;99.90;;;;;;5090282;28;20208;-73
2023/03/04 04:29:39;;;;;;;7.78;3.03;;;5.50;99.90;;;;;;5090837;28;20126;-74
2023/03/04 04:32:06;;;;;;;5.93;3.08;;;5.50;99.90;;;;;;5090214;28;20067;-72
2023/03/04 04:34:32;;;;;;;4.80;3.58;;;5.50;99.90;;;;;;5090873;28;20030;-72
2023/03/04 04:36:57;;;;;;;5.97;3.00;;;5.50;99.90;;;;;;5089918;28;20032;-73
2023/03/04 04:39:23;;;;;;;3.75;2.70;;;5.50;99.90;;;;;;5090732;28;20055;-72
2023/03/04 04:41:49;;;;;;;4.45;2.70;;;5.50;99.90;;;;;;5090371;28;20032;-70
2023/03/04 04:44:14;;;;;;;3.83;2.55;;;5.50;99.90;;;;;;5089958;28;20477;-73
2023/03/04 04:46:41;;;;;;;7.28;2.90;;;5.50;99.90;;;;;;5090581;28;20032;-73
2023/03/04 04:49:07;;;;;;;4.10;2.63;;;5.50;99.90;;;;;;5089998;28;20031;-73
2023/03/04 04:51:35;;;;;;;5.07;2.70;;;5.40;99.90;;;;;;5090482;28;20050;-73
2023/03/04 04:54:01;;;;;;;5.80;2.47;;;5.40;99.90;;;;;;5090018;28;20417;-73
2023/03/04 04:56:28;;;;;;;7.68;2.67;;;5.50;99.90;;;;;;5091210;28;20027;-73
2023/03/04 04:58:57;;;;;;;5.80;3.05;;;5.40;99.90;;;;;;5091325;28;20071;-77
2023/03/04 05:01:23;;;;;;;7.78;3.17;;;5.40;99.90;;;;;;5091766;28;20031;-74
2023/03/04 05:03:51;;;;;;;4.25;2.80;;;5.40;99.90;;;;;;5091433;28;20070;-73
2023/03/04 05:06:18;;;;;;;4.72;3.30;;;5.40;99.90;;;;;;5091214;28;20308;-74
2023/03/04 05:08:44;;;;;;;10.23;3.15;;;5.40;99.90;;;;;;5093949;28;20065;-74
2023/03/04 05:11:11;;;;;;;5.00;2.80;;;5.40;99.90;;;;;;5095881;28;20024;-74
2023/03/04 05:13:37;;;;;;;5.22;3.22;;;5.40;99.90;;;;;;5095072;28;20112;-72
2023/03/04 05:16:03;;;;;;;6.20;2.70;;;5.40;99.90;;;;;;5093850;28;20031;-74
2023/03/04 05:18:29;;;;;;;7.07;2.72;;;5.40;99.90;;;;;;5094383;28;20421;-74
2023/03/04 05:20:59;;;;;;;4.75;2.80;;;5.50;99.90;;;;;;5094536;28;20417;-76
2023/03/04 05:23:26;;;;;;;6.72;3.00;;;5.40;99.90;;;;;;5094215;28;20069;-73
2023/03/04 05:25:51;;;;;;;7.30;2.60;;;5.40;99.90;;;;;;5094256;28;20100;-73
2023/03/04 05:28:17;;;;;;;3.70;2.63;;;5.40;99.90;;;;;;5093429;28;20131;-72
2023/03/04 05:30:45;;;;;;;5.45;2.90;;;5.40;99.90;;;;;;5093953;28;20182;-72
2023/03/04 05:33:12;;;;;;;5.70;3.10;;;5.40;99.90;;;;;;5093411;28;20122;-73
2023/03/04 05:35:39;;;;;;;5.18;2.97;;;5.40;99.90;;;;;;5093585;28;20028;-73
2023/03/04 05:38:06;;;;;;;3.83;2.50;;;5.40;99.90;;;;;;5093431;28;20103;-73
2023/03/04 05:40:32;;;;;;;7.22;2.63;;;5.40;99.90;;;;;;5093408;28;20020;-73
2023/03/04 05:42:58;;;;;;;7.10;2.88;;;5.40;99.90;;;;;;5093839;28;20024;-77
2023/03/04 05:45:25;;;;;;;5.65;3.60;;;5.40;99.90;;;;;;5093337;28;20028;-74
2023/03/04 05:47:52;;;;;;;5.32;2.67;;;5.40;99.90;;;;;;5090481;28;20496;-74
2023/03/04 05:50:17;;;;;;;6.38;2.45;;;5.30;99.90;;;;;;5084414;28;20028;-73
2023/03/04 05:52:43;;;;;;;5.78;3.00;;;5.40;99.90;;;;;;5085361;28;20032;-73
2023/03/04 05:55:09;;;;;;;3.35;2.47;;;5.40;99.90;;;;;;5091464;28;20028;-72
2023/03/04 05:57:35;;;;;;;4.57;2.60;;;5.40;99.90;;;;;;5093595;28;20032;-73
2023/03/04 06:00:04;;;;;;;4.30;2.58;;;5.40;99.90;;;;;;5093121;28;20110;-74
2023/03/04 06:02:30;;;;;;;8.13;3.28;;;5.40;99.90;;;;;;5093541;28;20020;-73
2023/03/04 06:04:56;;;;;;;5.22;2.75;;;5.40;99.90;;;;;;5093460;28;20362;-73
2023/03/04 06:07:21;;;;;;;5.32;2.80;;;5.40;99.90;;;;;;5091468;28;20028;-74
2023/03/04 06:09:47;;;;;;;4.97;2.80;;;5.40;99.90;;;;;;5093302;28;20027;-73
2023/03/04 06:12:13;;;;;;;3.83;2.95;;;5.40;99.90;;;;;;5092753;28;20035;-73
2023/03/04 06:14:38;;;;;;;6.90;3.33;;;5.40;99.90;;;;;;5093393;28;20107;-73
2023/03/04 06:17:04;;;;;;;4.97;2.80;;;5.40;99.90;;;;;;5093076;28;20028;-74
2023/03/04 06:19:31;;;;;;;4.07;3.33;;;5.40;99.90;;;;;;5092258;28;20028;-74
2023/03/04 06:21:58;;;;;;;6.55;3.67;;;5.40;99.90;;;;;;5092909;28;20661;-74
2023/03/04 06:24:24;;;;;;;6.65;3.45;;;5.30;99.90;;;;;;5091089;28;20090;-72
2023/03/04 06:26:50;;;;;;;6.68;3.95;;;5.40;99.90;;;;;;5093144;28;20427;-74
2023/03/04 06:29:15;;;;;;;11.02;4.60;;;5.30;99.90;;;;;;5092836;28;20111;-74
2023/03/04 06:31:41;;;;;;;5.15;4.40;;;5.30;99.90;;;;;;5091605;28;20035;-73
2023/03/04 06:34:10;;;;;;;4.60;3.53;;;5.30;99.90;;;;;;5092343;28;20031;-74
2023/03/04 06:36:36;;;;;;;5.57;3.75;;;5.30;99.90;;;;;;5092161;28;20024;-74
2023/03/04 06:39:04;;;;;;;6.57;4.43;;;5.30;99.90;;;;;;5092291;28;20052;-77
2023/03/04 06:41:30;;;;;;;4.78;3.45;;;5.30;99.90;;;;;;5092515;28;20373;-74
2023/03/04 06:43:56;;;;;;;5.63;3.78;;;5.40;99.90;;;;;;5092614;28;20047;-74
2023/03/04 06:46:22;;;;;;;8.70;3.60;;;5.30;99.90;;;;;;5092027;28;20454;-74
2023/03/04 06:48:48;;;;;;;7.15;4.70;;;5.40;99.90;;;;;;5092399;28;20042;-74
2023/03/04 06:51:14;;;;;;;6.97;4.60;;;5.40;99.90;;;;;;5091917;28;20150;-73
2023/03/04 06:53:40;;;;;;;7.15;4.50;;;5.40;99.90;;;;;;5092118;28;20481;-74
2023/03/04 06:56:07;;;;;;;6.82;4.65;;;5.40;99.90;;;;;;5091588;28;20032;-74
2023/03/04 06:58:33;;;;;;;9.30;5.68;;;5.40;99.90;;;;;;5092196;28;20145;-74
2023/03/04 07:01:23;;;;;;;7.50;5.30;;;5.40;99.90;;;;;;5092141;28;20445;-73
2023/03/04 07:03:51;;;;;;;6.25;5.30;;;5.40;99.90;;;;;;5092007;28;20024;-73
2023/03/04 07:06:19;;;;;;;7.72;5.65;;;5.30;99.90;;;;;;5091608;28;20024;-73
2023/03/04 07:08:45;;;;;;;6.47;5.65;;;5.30;99.90;;;;;;5092041;28;20055;-74
2023/03/04 07:11:11;;;;;;;7.57;6.40;;;5.40;99.90;;;;;;5091578;28;20028;-74
2023/03/04 07:13:37;;;;;;;9.43;6.05;;;5.30;99.90;;;;;;5091798;28;20099;-74
2023/03/04 07:16:08;;;;;;;8.80;6.35;;;5.40;99.90;;;;;;5091309;28;20107;-76
2023/03/04 07:18:34;;;;;;;9.30;6.57;;;5.40;99.90;;;;;;5091748;28;20024;-73
2023/03/04 07:21:00;;;;;;;9.50;7.07;;;5.40;99.90;;;;;;5090537;28;20020;-73
2023/03/04 07:23:25;;;;;;;9.55;6.85;;;5.30;99.90;;;;;;5090740;28;20165;-73
2023/03/04 07:25:51;;;;;;;7.85;6.60;;;5.40;99.90;;;;;;5092139;28;20050;-73
2023/03/04 07:28:17;;;;;;;10.27;7.72;;;5.40;99.90;;;;;;5090928;28;20050;-72
2023/03/04 07:30:43;;;;;;;9.95;8.20;;;5.40;99.90;;;;;;5091414;28;20024;-73
2023/03/04 07:33:09;;;;;;;13.75;8.63;;;5.40;99.90;;;;;;5089611;28;20127;-73
2023/03/04 07:35:36;;;;;;;12.35;7.88;;;5.40;99.90;;;;;;5091492;28;20479;-73
2023/03/04 07:38:01;;;;;;;11.20;8.38;;;5.40;99.90;;;;;;5090242;28;20028;-73
2023/03/04 07:40:27;;;;;;;11.15;8.15;;;5.40;99.90;;;;;;5090993;28;20138;-74
2023/03/04 07:42:54;;;;;;;11.70;8.20;;;5.40;99.90;;;;;;5091172;28;20043;-74
2023/03/04 07:45:21;;;;;;;11.00;8.63;;;5.40;99.90;;;;;;5090926;28;20423;-74
2023/03/04 07:47:47;;;;;;;9.98;8.00;;;5.40;99.90;;;;;;5091653;28;20470;-72
2023/03/04 07:50:13;;;;;;;12.00;9.48;;;5.40;99.90;;;;;;5090978;28;20043;-74
2023/03/04 07:52:44;;;;;;;11.07;9.65;;;5.40;99.90;;;;;;5091413;28;20035;-74
2023/03/04 07:55:12;;;;;;;15.13;11.07;;;5.40;99.90;;;;;;5080444;28;20025;-73
2023/03/04 07:57:40;;;;;;;12.25;9.65;;;5.40;99.90;;;;;;5071803;28;20040;-73
2023/03/04 08:00:07;;;;;;;14.85;10.10;;;5.40;99.90;;;;;;5070889;28;20085;-76
2023/03/04 08:02:33;;;;;;;14.68;11.27;;;5.40;99.90;;;;;;5069560;28;20032;-72
2023/03/04 08:04:58;;;;;;;12.98;10.27;;;5.40;99.90;;;;;;5071017;28;20439;-73
2023/03/04 08:07:24;;;;;;;11.50;10.30;;;5.40;99.90;;;;;;5085631;28;20068;-73
2023/03/04 08:09:50;;;;;;;13.38;11.00;;;5.50;99.90;;;;;;5070824;28;20024;-73
2023/03/04 08:12:15;;;;;;;15.10;12.68;;;5.40;99.90;;;;;;5070246;28;20498;-73
2023/03/04 08:14:41;;;;;;;15.63;12.60;;;5.40;99.90;;;;;;5069538;28;20478;-72
2023/03/04 08:17:08;;;;;;;14.50;11.18;;;5.50;99.90;;;;;;5070849;28;20024;-76
2023/03/04 08:19:34;;;;;;;12.98;10.90;;;5.50;99.90;;;;;;5070490;28;20028;-73
2023/03/04 08:22:00;;;;;;;13.32;11.27;;;5.50;99.90;;;;;;5071143;28;20020;-73
2023/03/04 08:24:26;;;;;;;14.52;11.20;;;5.50;99.90;;;;;;5070006;28;20395;-73
2023/03/04 08:26:52;;;;;;;15.05;11.13;;;5.50;99.90;;;;;;5070004;28;20028;-73
2023/03/04 08:29:21;;;;;;;15.23;11.45;;;5.50;99.90;;;;;;5070231;28;20028;-73
2023/03/04 08:31:51;;;;;;;12.70;11.00;;;5.60;99.90;;;;;;5070865;28;20112;-73
2023/03/04 08:34:20;;;;;;;16.67;10.70;;;5.60;99.90;;;;;;5069623;28;20362;-72
2023/03/04 08:36:46;;;;;;;14.45;10.93;;;5.70;99.90;;;;;;5071046;28;20028;-73
2023/03/04 08:39:14;;;;;;;12.02;10.73;;;5.70;99.90;;;;;;5070181;28;20165;-73
2023/03/04 08:41:40;;;;;;;14.35;10.27;;;5.80;99.90;;;;;;5070408;28;20154;-74
2023/03/04 08:44:09;;;;;;;15.05;10.98;;;5.80;99.90;;;;;;5070040;28;20219;-73
2023/03/04 08:46:35;;;;;;;12.82;11.23;;;5.80;99.90;;;;;;5070657;28;20120;-74
2023/03/04 08:49:01;;;;;;;16.05;12.45;;;5.80;99.90;;;;;;5070776;28;20025;-73
2023/03/04 08:51:27;;;;;;;13.80;11.40;;;5.80;99.90;;;;;;5068799;28;20025;-74
2023/03/04 08:53:53;;;;;;;14.90;13.20;;;5.80;99.90;;;;;;5070667;28;20025;-74
2023/03/04 08:56:19;;;;;;;16.80;13.80;;;5.80;99.90;;;;;;5069426;28;20483;-73
2023/03/04 08:58:44;;;;;;;16.25;13.75;;;5.80;99.90;;;;;;5070243;28;20485;-72
2023/03/04 09:01:12;;;;;;;17.38;15.52;;;5.80;99.90;;;;;;5085461;28;20032;-77
2023/03/04 09:03:39;;;;;;;18.85;14.15;;;5.70;99.90;;;;;;5068955;28;20107;-73
2023/03/04 09:06:06;;;;;;;15.05;13.55;;;5.70;99.90;;;;;;5070226;28;20024;-72
2023/03/04 09:08:32;;;;;;;15.63;13.48;;;5.70;99.90;;;;;;5069334;28;20543;-72
2023/03/04 09:10:57;;;;;;;18.52;13.45;;;5.70;99.90;;;;;;5085308;28;20105;-72
2023/03/04 09:13:24;;;;;;;15.73;13.07;;;5.70;99.90;;;;;;5069385;28;20032;-73
2023/03/04 09:15:52;;;;;;;18.27;14.57;;;5.70;99.90;;;;;;5068430;28;20063;-74
2023/03/04 09:18:19;;;;;;;16.83;13.82;;;5.70;99.90;;;;;;5069420;28;20028;-72
2023/03/04 09:20:45;;;;;;;21.20;15.50;;;5.70;99.90;;;;;;5085407;28;20508;-73
2023/03/04 09:23:12;;;;;;;19.75;15.40;;;5.70;99.90;;;;;;5069548;28;20148;-75
2023/03/04 09:25:39;;;;;;;16.83;14.13;;;5.70;99.90;;;;;;5069450;28;20475;-75
2023/03/04 09:28:05;;;;;;;18.13;15.65;;;5.80;99.90;;;;;;5069999;28;20243;-72
2023/03/04 09:30:32;;;;;;;15.05;13.35;;;5.80;99.90;;;;;;5069378;28;20036;-74
2023/03/04 09:32:58;;;;;;;18.90;15.05;;;5.80;99.90;;;;;;5069625;28;20484;-73
2023/03/04 09:35:24;;;;;;;20.65;16.80;;;5.90;99.90;;;;;;5069271;28;20158;-73
2023/03/04 09:37:51;;;;;;;20.17;15.18;;;5.80;99.90;;;;;;5070131;28;20025;-73
2023/03/04 09:40:25;;;;;;;20.50;15.00;;;5.90;99.90;;;;;;5069664;28;20039;-74
2023/03/04 09:42:56;;;;;;;17.33;15.00;;;5.90;99.90;;;;;;5070092;28;20028;-73
2023/03/04 09:45:27;;;;;;;21.73;15.02;;;5.80;99.90;;;;;;5068476;28;20356;-73
2023/03/04 09:47:54;;;;;;;16.08;14.38;;;5.90;99.90;;;;;;5070244;28;20029;-72
2023/03/04 09:50:21;;;;;;;18.48;15.02;;;5.90;99.90;;;;;;5069279;28;20047;-73
2023/03/04 09:53:06;;;;;;;17.52;14.60;;;6.00;99.90;;;;;;5070310;28;20039;-73
2023/03/04 09:55:40;;;;;;;18.33;15.30;;;5.90;99.90;;;;;;5072452;28;20033;-72
2023/03/04 09:58:18;;;;;;;20.98;16.15;;;6.00;99.90;;;;;;5073047;28;20040;-74
2023/03/04 10:00:49;;;;;;;24.80;16.10;;;6.00;99.90;;;;;;5073594;28;20021;-73
2023/03/04 10:03:20;;;;;;;19.15;15.77;;;6.00;99.90;;;;;;5073912;28;20051;-76
2023/03/04 10:05:56;;;;;;;18.58;16.13;;;6.00;99.90;;;;;;5073292;28;20075;-74
2023/03/04 10:08:45;;;;;;;27.38;17.75;;;6.00;99.90;;;;;;5073135;28;20036;-74
2023/03/04 10:11:22;;;;;;;19.35;15.82;;;6.00;99.90;;;;;;5072923;28;20063;-74
2023/03/04 10:14:22;;;;;;;18.52;15.80;;;6.00;99.90;;;;;;5076526;28;20443;-74
2023/03/04 10:17:17;;;;;;;17.90;15.18;;;5.90;99.90;;;;;;5076687;28;20060;-73
2023/03/04 10:20:10;;;;;;;20.52;15.85;;;5.90;99.90;;;;;;5076747;28;20028;-73
2023/03/04 10:22:50;;;;;;;19.90;15.57;;;5.90;99.90;;;;;;5074954;28;20052;-72
2023/03/04 10:25:18;;;;;;;19.70;15.18;;;5.90;99.90;;;;;;5076167;28;20097;-76
2023/03/04 10:28:08;;;;;;;21.30;14.85;;;5.90;99.90;;;;;;5075525;28;20056;-72
2023/03/04 10:30:43;;;;;;;22.67;15.05;;;5.80;99.90;;;;;;5068144;28;20032;-71
2023/03/04 10:33:19;;;;;;;16.20;14.27;;;5.80;99.90;;;;;;5072337;28;20310;-73
2023/03/04 10:36:00;;;;;;;18.23;14.82;;;5.80;99.90;;;;;;5073031;28;20063;-74
2023/03/04 10:38:30;;;;;;;18.95;15.00;;;5.80;99.90;;;;;;5072685;28;20029;-73
2023/03/04 10:40:57;;;;;;;18.38;15.45;;;5.80;99.90;;;;;;5072904;28;20029;-73
2023/03/04 10:43:23;;;;;;;16.38;14.27;;;5.90;99.90;;;;;;5072295;28;20078;-74
2023/03/04 10:45:55;;;;;;;23.95;14.95;;;5.90;99.90;;;;;;5074564;28;20382;-73
2023/03/04 10:48:24;;;;;;;19.33;13.63;;;5.80;99.90;;;;;;5073094;28;20071;-73
2023/03/04 10:50:50;;;;;;;18.05;14.70;;;5.80;99.90;;;;;;5087942;28;20356;-74
2023/03/04 10:53:40;;;;;;;18.17;14.32;;;5.80;99.90;;;;;;5072171;28;20028;-73
2023/03/04 10:56:44;;;;;;;17.58;13.15;;;5.90;99.90;;;;;;5072681;28;20107;-73
2023/03/04 10:59:36;;;;;;;19.63;13.50;;;6.00;99.90;;;;;;5072108;28;20379;-72
2023/03/04 11:02:16;;;;;;;17.88;13.35;;;6.00;99.90;;;;;;5072298;28;20031;-73
2023/03/04 11:04:47;;;;;;;13.80;12.10;;;6.00;99.90;;;;;;5071208;28;20020;-74
2023/03/04 11:07:14;;;;;;;16.77;11.85;;;6.00;99.90;;;;;;5071603;28;20032;-73
2023/03/04 11:09:42;;;;;;;17.25;11.48;;;5.90;99.90;;;;;;5071477;28;20032;-72
2023/03/04 11:12:14;;;;;;;14.25;11.43;;;5.90;99.90;;;;;;5071953;28;20024;-74
2023/03/04 11:14:42;;;;;;;14.40;10.30;;;5.90;99.90;;;;;;5070826;28;20133;-73
2023/03/04 11:17:21;;;;;;;14.48;10.75;;;5.90;99.90;;;;;;5071744;28;20108;-73
2023/03/04 11:19:53;;;;;;;14.25;10.25;;;5.90;99.90;;;;;;5071559;28;20059;-73
2023/03/04 11:22:21;;;;;;;17.40;10.30;;;6.00;99.90;;;;;;5070795;28;20474;-79
2023/03/04 11:25:19;;;;;;;11.88;9.82;;;6.00;99.90;;;;;;5071704;28;20056;-73
2023/03/04 11:27:52;;;;;;;13.65;9.68;;;6.00;99.90;;;;;;5070880;28;20056;-73
2023/03/04 11:30:17;;;;;;;17.45;9.90;;;6.00;99.90;;;;;;5071354;28;20101;-74
2023/03/04 11:32:47;;;;;;;14.38;9.23;;;6.10;99.90;;;;;;5070696;28;20455;-74
2023/03/04 11:36:05;;;;;;;10.55;8.52;;;6.20;99.90;;;;;;5071197;28;20052;-74
2023/03/04 11:38:46;;;;;;;13.15;8.43;;;6.20;99.90;;;;;;5069635;28;20042;-73
2023/03/04 11:41:24;;;;;;;15.55;9.20;;;6.10;99.90;;;;;;5070926;28;20383;-74
2023/03/04 11:43:49;;;;;;;13.30;9.65;;;6.10;99.90;;;;;;5071018;28;20420;-73
2023/03/04 11:46:41;;;;;;;13.07;8.68;;;6.10;99.90;;;;;;5070308;28;20044;-74
2023/03/04 11:49:37;;;;;;;10.27;8.90;;;6.20;99.90;;;;;;5069605;28;20090;-73
2023/03/04 11:52:20;;;;;;;16.00;8.75;;;6.20;99.90;;;;;;5071155;28;20020;-73
2023/03/04 11:55:05;;;;;;;15.85;9.25;;;6.30;99.90;;;;;;5070279;28;20044;-73
2023/03/04 11:57:39;;;;;;;13.02;8.88;;;6.30;99.90;;;;;;5071567;28;20028;-73
2023/03/04 12:00:20;;;;;;;12.65;7.90;;;6.20;99.90;;;;;;5072125;28;20040;-73
2023/03/04 12:03:27;;;;;;;10.20;7.25;;;6.20;99.90;;;;;;5071443;28;20036;-72
2023/03/04 12:06:05;;;;;;;12.18;8.60;;;6.30;99.90;;;;;;5071057;28;20111;-73
2023/03/04 12:09:07;;;;;;;11.73;8.07;;;6.30;99.90;;;;;;5071055;28;20339;-74
2023/03/04 12:12:10;;;;;;;11.80;8.43;;;6.40;99.90;;;;;;5071279;28;20021;-73
2023/03/04 12:14:47;;;;;;;10.98;7.72;;;6.40;99.90;;;;;;5071372;28;20033;-74
2023/03/04 12:17:32;;;;;;;15.02;7.82;;;6.40;99.90;;;;;;5071216;28;20032;-73
2023/03/04 12:20:13;;;;;;;13.85;8.13;;;6.40;99.90;;;;;;5071904;28;20025;-73
2023/03/04 12:22:50;;;;;;;10.20;8.00;;;6.40;99.90;;;;;;5070965;28;20139;-73
2023/03/04 12:25:40;;;;;;;12.73;8.35;;;6.50;99.90;;;;;;5072003;28;20040;-73
2023/03/04 12:28:18;;;;;;;9.98;7.63;;;6.50;99.90;;;;;;5070647;28;20105;-73
2023/03/04 12:31:12;;;;;;;12.52;10.00;;;6.50;99.90;;;;;;5070198;28;20025;-73
2023/03/04 12:33:40;;;;;;;11.10;9.90;;;6.50;99.90;;;;;;5070153;28;20035;-73
2023/03/04 12:36:31;;;;;;;13.88;8.63;;;6.50;99.90;;;;;;5070475;28;20025;-74
2023/03/04 12:38:56;;;;;;;13.18;7.35;;;6.60;99.90;;;;;;5070564;28;20526;-73
2023/03/04 12:41:33;;;;;;;21.05;8.57;;;6.60;99.90;;;;;;5070250;28;20039;-74
2023/03/04 12:44:04;;;;;;;15.43;7.72;;;6.60;99.90;;;;;;5070789;28;20028;-73
2023/03/04 12:46:40;;;;;;;14.23;8.13;;;6.70;99.90;;;;;;5070559;28;20089;-73
2023/03/04 12:49:25;;;;;;;11.93;7.72;;;6.70;99.90;;;;;;5070377;28;20036;-73
2023/03/04 12:52:24;;;;;;;13.32;8.80;;;6.70;99.90;;;;;;5070590;28;20025;-73
2023/03/04 12:54:56;;;;;;;16.58;8.45;;;6.70;99.90;;;;;;5069951;28;20040;-73
2023/03/04 12:57:30;;;;;;;12.38;8.85;;;6.70;99.90;;;;;;5070818;28;20086;-74
2023/03/04 13:00:13;;;;;;;12.07;8.20;;;6.80;99.90;;;;;;5070253;28;20035;-74
2023/03/04 13:02:55;;;;;;;14.60;9.10;;;6.80;99.90;;;;;;5069811;28;20440;-74
2023/03/04 13:05:34;;;;;;;14.43;7.47;;;6.80;99.90;;;;;;5070525;28;20107;-74